Time,TemperatureF,DewpointF,PressureIn,WindDirection,WindDirectionDegrees,WindSpeedMPH,WindSpeedGustMPH,Humidity,HourlyPrecipIn,Conditions,Clouds,dailyrainin,SoftwareType,DateUTC
2013-12-20 00:00:00,29.7,28.7,29.87,East,101,2.0,10.0,96,0.00,,OVC120,0.00,VWS V14.00,2013-12-20 05:00:00,
2013-12-20 00:01:00,29.8,28.8,29.87,ENE,78,1.0,3.0,96,0.00,,,0.00,VWS V14.00,2013-12-20 05:01:00,
2013-12-20 00:02:00,29.7,28.7,29.87,ENE,75,2.0,3.0,96,0.00,,,0.00,VWS V14.00,2013-12-20 05:02:00,
2013-12-20 00:07:00,29.8,28.8,29.87,ENE,74,0.0,3.0,96,0.00,,,0.00,VWS V14.00,2013-12-20 05:07:00,
2013-12-20 00:12:00,29.7,28.7,29.86,East,94,0.0,9.0,96,0.00,,,0.00,VWS V14.00,2013-12-20 05:12:00,
2013-12-20 00:18:00,29.7,28.7,29.86,ENE,60,3.0,9.0,96,0.00,,,0.00,VWS V14.00,2013-12-20 05:18:00,
2013-12-20 00:23:00,29.7,28.7,29.86,ENE,67,2.0,9.0,96,0.00,,,0.00,VWS V14.00,2013-12-20 05:23:00,
2013-12-20 00:28:00,29.7,28.7,29.87,ENE,69,3.0,9.0,96,0.00,,,0.00,VWS V14.00,2013-12-20 05:28:00,
2013-12-20 00:30:00,29.7,28.7,29.87,NE,45,4.0,9.0,96,0.00,,OVC120,0.00,VWS V14.00,2013-12-20 05:30:00,
2013-12-20 00:33:00,29.7,28.7,29.86,East,80,0.0,5.0,96,0.00,,,0.00,VWS V14.00,2013-12-20 05:33:00,
2013-12-20 00:38:00,29.8,29.0,29.86,ENE,63,0.0,9.0,97,0.00,,,0.00,VWS V14.00,2013-12-20 05:38:00,
2013-12-20 00:43:00,29.9,29.1,29.86,ENE,75,0.0,9.0,97,0.00,,,0.00,VWS V14.00,2013-12-20 05:43:00,
2013-12-20 00:47:00,29.9,29.1,29.85,ENE,65,0.0,9.0,97,0.00,,,0.00,VWS V14.00,2013-12-20 05:47:00,
2013-12-20 00:52:00,29.9,28.9,29.85,East,96,2.0,9.0,96,0.00,,,0.00,VWS V14.00,2013-12-20 05:52:00,
2013-12-20 00:57:00,29.9,29.1,29.84,ENE,76,3.0,9.0,97,0.00,,,0.00,VWS V14.00,2013-12-20 05:57:00,
2013-12-20 01:00:00,29.9,29.1,29.85,NE,45,5.0,9.0,97,0.00,,OVC120,0.00,VWS V14.00,2013-12-20 06:00:00,
2013-12-20 01:02:00,29.9,29.1,29.84,NE,53,1.0,5.0,97,0.00,,,0.00,VWS V14.00,2013-12-20 06:02:00,
2013-12-20 01:07:00,29.9,29.1,29.84,ENE,63,7.0,8.0,97,0.00,,,0.00,VWS V14.00,2013-12-20 06:07:00,
2013-12-20 01:12:00,30.0,29.2,29.84,NE,51,3.0,8.0,97,0.00,,,0.00,VWS V14.00,2013-12-20 06:12:00,
2013-12-20 01:17:00,30.0,29.2,29.84,ENE,74,3.0,8.0,97,0.00,,,0.00,VWS V14.00,2013-12-20 06:17:00,
2013-12-20 01:22:00,30.1,29.4,29.84,NE,42,0.0,8.0,97,0.00,,,0.00,VWS V14.00,2013-12-20 06:22:00,
2013-12-20 01:27:00,30.1,29.4,29.84,East,83,1.0,8.0,97,0.00,,,0.00,VWS V14.00,2013-12-20 06:27:00,
2013-12-20 01:30:00,30.1,29.4,29.84,ENE,71,3.0,8.0,97,0.00,,OVC120,0.00,VWS V14.00,2013-12-20 06:30:00,
2013-12-20 01:32:00,30.1,29.4,29.84,East,79,2.0,7.0,97,0.00,,,0.00,VWS V14.00,2013-12-20 06:32:00,
2013-12-20 01:37:00,30.1,29.4,29.84,NE,49,0.0,7.0,97,0.00,,,0.00,VWS V14.00,2013-12-20 06:37:00,
2013-12-20 01:42:00,30.1,29.4,29.84,NE,46,4.0,7.0,97,0.00,,,0.00,VWS V14.00,2013-12-20 06:42:00,
2013-12-20 01:48:00,30.2,29.5,29.84,NE,45,2.0,7.0,97,0.00,,,0.00,VWS V14.00,2013-12-20 06:48:00,
2013-12-20 01:53:00,30.2,29.5,29.84,NE,46,2.0,7.0,97,0.00,,,0.00,VWS V14.00,2013-12-20 06:53:00,
2013-12-20 01:58:00,30.2,29.5,29.83,ENE,63,2.0,7.0,97,0.00,,,0.00,VWS V14.00,2013-12-20 06:58:00,
2013-12-20 02:00:00,30.2,29.5,29.83,NE,37,0.0,7.0,97,0.00,,OVC120,0.00,VWS V14.00,2013-12-20 07:00:00,
2013-12-20 02:03:00,30.3,29.5,29.83,ESE,114,4.0,7.0,97,0.00,,,0.00,VWS V14.00,2013-12-20 07:03:00,
2013-12-20 02:08:00,30.3,29.5,29.82,ENE,63,1.0,7.0,97,0.00,,,0.00,VWS V14.00,2013-12-20 07:08:00,
2013-12-20 02:13:00,30.3,29.5,29.82,NE,46,2.0,7.0,97,0.00,,,0.00,VWS V14.00,2013-12-20 07:13:00,
2013-12-20 02:18:00,30.3,29.5,29.83,East,83,3.0,7.0,97,0.00,,,0.00,VWS V14.00,2013-12-20 07:18:00,
2013-12-20 02:23:00,30.3,29.5,29.83,ENE,75,0.0,7.0,97,0.00,,,0.00,VWS V14.00,2013-12-20 07:23:00,
2013-12-20 02:28:00,30.3,29.5,29.83,NE,42,2.0,7.0,97,0.00,,,0.00,VWS V14.00,2013-12-20 07:28:00,
2013-12-20 02:30:00,30.3,29.5,29.83,ENE,76,4.0,7.0,97,0.00,,OVC120,0.00,VWS V14.00,2013-12-20 07:30:00,
2013-12-20 02:33:00,30.3,29.5,29.83,ENE,76,3.0,6.0,97,0.00,,,0.00,VWS V14.00,2013-12-20 07:33:00,
2013-12-20 02:38:00,30.3,29.5,29.83,ENE,77,3.0,6.0,97,0.00,,,0.00,VWS V14.00,2013-12-20 07:38:00,
2013-12-20 02:43:00,30.3,29.5,29.82,East,94,6.0,8.0,97,0.00,,,0.00,VWS V14.00,2013-12-20 07:43:00,
2013-12-20 02:48:00,30.4,29.6,29.82,ENE,64,4.0,8.0,97,0.00,,,0.00,VWS V14.00,2013-12-20 07:48:00,
2013-12-20 02:53:00,30.4,29.6,29.82,ENE,59,0.0,8.0,97,0.00,,,0.00,VWS V14.00,2013-12-20 07:53:00,
2013-12-20 02:59:00,30.5,29.8,29.82,ENE,61,1.0,8.0,97,0.00,,,0.00,VWS V14.00,2013-12-20 07:59:00,
2013-12-20 03:00:00,30.5,29.8,29.82,ESE,102,2.0,8.0,97,0.00,,OVC120,0.00,VWS V14.00,2013-12-20 08:00:00,
2013-12-20 03:04:00,30.5,29.8,29.83,NE,38,2.0,7.0,97,0.00,,,0.00,VWS V14.00,2013-12-20 08:04:00,
2013-12-20 03:09:00,30.6,29.9,29.83,East,86,1.0,7.0,97,0.00,,,0.00,VWS V14.00,2013-12-20 08:09:00,
2013-12-20 03:14:00,30.6,29.9,29.83,NE,44,3.0,8.0,97,0.00,,,0.00,VWS V14.00,2013-12-20 08:14:00,
2013-12-20 03:19:00,30.6,29.9,29.83,NE,35,4.0,8.0,97,0.00,,,0.00,VWS V14.00,2013-12-20 08:19:00,
2013-12-20 03:24:00,30.6,29.9,29.83,ESE,112,7.0,8.0,97,0.00,,,0.00,VWS V14.00,2013-12-20 08:24:00,
2013-12-20 03:29:00,30.6,29.9,29.83,NNE,32,0.0,8.0,97,0.00,,,0.00,VWS V14.00,2013-12-20 08:29:00,
2013-12-20 03:30:00,30.6,29.9,29.83,NNE,32,0.0,8.0,97,0.00,,OVC120,0.00,VWS V14.00,2013-12-20 08:30:00,
2013-12-20 03:34:00,30.7,30.0,29.81,NE,45,5.0,7.0,97,0.00,,,0.00,VWS V14.00,2013-12-20 08:34:00,
2013-12-20 03:39:00,30.8,30.0,29.82,NE,44,1.0,8.0,97,0.00,,,0.00,VWS V14.00,2013-12-20 08:39:00,
2013-12-20 03:44:00,30.9,30.1,29.82,NE,44,0.0,9.0,97,0.00,,,0.00,VWS V14.00,2013-12-20 08:44:00,
2013-12-20 03:49:00,30.9,30.1,29.81,East,88,1.0,9.0,97,0.00,,,0.00,VWS V14.00,2013-12-20 08:49:00,
2013-12-20 03:54:00,30.8,30.0,29.82,NE,36,6.0,9.0,97,0.00,,,0.00,VWS V14.00,2013-12-20 08:54:00,
2013-12-20 04:00:00,30.8,30.0,29.81,NE,48,3.0,9.0,97,0.00,,,0.00,VWS V14.00,2013-12-20 09:00:00,
2013-12-20 04:05:00,30.9,30.1,29.81,NE,46,0.0,7.0,97,0.00,,,0.00,VWS V14.00,2013-12-20 09:05:00,
2013-12-20 04:10:00,31.0,30.2,29.81,NNE,28,2.0,7.0,97,0.00,,,0.00,VWS V14.00,2013-12-20 09:10:00,
2013-12-20 04:15:00,30.9,30.1,29.80,ENE,61,4.0,7.0,97,0.00,,,0.00,VWS V14.00,2013-12-20 09:15:00,
2013-12-20 04:20:00,30.9,30.1,29.80,ENE,69,5.0,8.0,97,0.00,,,0.00,VWS V14.00,2013-12-20 09:20:00,
2013-12-20 04:25:00,30.9,30.1,29.80,ESE,102,4.0,8.0,97,0.00,,,0.00,VWS V14.00,2013-12-20 09:25:00,
2013-12-20 04:30:00,30.9,30.1,29.80,ENE,67,1.0,2.0,97,0.00,,,0.00,VWS V14.00,2013-12-20 09:30:00,
2013-12-20 04:35:00,30.9,30.1,29.80,ENE,65,1.0,3.0,97,0.00,,,0.00,VWS V14.00,2013-12-20 09:35:00,
2013-12-20 04:40:00,30.9,30.1,29.80,ENE,61,3.0,7.0,97,0.00,,,0.00,VWS V14.00,2013-12-20 09:40:00,
2013-12-20 04:45:00,30.9,30.1,29.80,ESE,103,1.0,8.0,97,0.00,,,0.00,VWS V14.00,2013-12-20 09:45:00,
2013-12-20 04:50:00,31.0,30.2,29.79,ENE,61,0.0,8.0,97,0.00,,,0.00,VWS V14.00,2013-12-20 09:50:00,
2013-12-20 04:56:00,31.0,30.2,29.79,ENE,72,0.0,8.0,97,0.00,,,0.00,VWS V14.00,2013-12-20 09:56:00,
2013-12-20 05:00:00,30.4,29.6,29.80,ENE,61,4.0,10.0,97,0.00,,OVC110,0.00,VWS V14.00,2013-12-20 10:00:00,
2013-12-20 05:01:00,31.0,30.2,29.79,NE,34,3.0,4.0,97,0.00,,,0.00,VWS V14.00,2013-12-20 10:01:00,
2013-12-20 05:06:00,31.0,30.2,29.78,ENE,67,0.0,5.0,97,0.00,,,0.00,VWS V14.00,2013-12-20 10:06:00,
2013-12-20 05:11:00,30.9,30.1,29.79,East,88,5.0,9.0,97,0.00,,,0.00,VWS V14.00,2013-12-20 10:11:00,
2013-12-20 05:16:00,31.0,30.2,29.79,East,90,0.0,9.0,97,0.00,,,0.00,VWS V14.00,2013-12-20 10:16:00,
2013-12-20 05:21:00,31.0,30.2,29.79,NNE,33,3.0,9.0,97,0.00,,,0.00,VWS V14.00,2013-12-20 10:21:00,
2013-12-20 05:26:00,30.9,30.1,29.79,NNE,23,5.0,9.0,97,0.00,,,0.00,VWS V14.00,2013-12-20 10:26:00,
2013-12-20 05:30:00,30.7,30.0,29.80,NE,36,3.0,9.0,97,0.00,,OVC120,0.00,VWS V14.00,2013-12-20 10:30:00,
2013-12-20 05:31:00,30.7,30.0,29.80,NE,36,3.0,4.0,97,0.00,,,0.00,VWS V14.00,2013-12-20 10:31:00,
2013-12-20 05:36:00,30.6,29.9,29.80,NE,40,3.0,6.0,97,0.00,,,0.00,VWS V14.00,2013-12-20 10:36:00,
2013-12-20 05:41:00,30.5,29.8,29.80,NNE,26,3.0,6.0,97,0.00,,,0.00,VWS V14.00,2013-12-20 10:41:00,
2013-12-20 05:46:00,30.5,29.8,29.80,NE,50,5.0,6.0,97,0.00,,,0.00,VWS V14.00,2013-12-20 10:46:00,
2013-12-20 05:51:00,30.5,29.8,29.80,NNE,30,5.0,10.0,97,0.00,,,0.00,VWS V14.00,2013-12-20 10:51:00,
2013-12-20 05:56:00,30.5,29.8,29.80,NE,36,3.0,10.0,97,0.00,,,0.00,VWS V14.00,2013-12-20 10:56:00,
2013-12-20 06:00:00,30.4,29.6,29.80,ENE,61,4.0,10.0,97,0.00,,OVC120,0.00,VWS V14.00,2013-12-20 11:00:00,
2013-12-20 06:02:00,30.4,29.6,29.79,NE,40,6.0,9.0,97,0.00,,,0.00,VWS V14.00,2013-12-20 11:02:00,
2013-12-20 06:07:00,30.3,29.5,29.80,ENE,58,3.0,9.0,97,0.00,,,0.00,VWS V14.00,2013-12-20 11:07:00,
2013-12-20 06:12:00,30.3,29.5,29.80,NE,34,0.0,9.0,97,0.00,,,0.00,VWS V14.00,2013-12-20 11:12:00,
2013-12-20 06:17:00,30.3,29.5,29.80,ENE,60,1.0,9.0,97,0.00,,,0.00,VWS V14.00,2013-12-20 11:17:00,
2013-12-20 06:22:00,30.2,29.5,29.80,NE,51,5.0,9.0,97,0.00,,,0.00,VWS V14.00,2013-12-20 11:22:00,
2013-12-20 06:27:00,30.2,29.5,29.80,NE,37,6.0,9.0,97,0.00,,,0.00,VWS V14.00,2013-12-20 11:27:00,
2013-12-20 06:30:00,30.1,29.4,29.80,NE,44,6.0,9.0,97,0.00,,OVC120,0.00,VWS V14.00,2013-12-20 11:30:00,
2013-12-20 06:32:00,30.0,29.2,29.81,NE,48,4.0,6.0,97,0.00,,,0.00,VWS V14.00,2013-12-20 11:32:00,
2013-12-20 06:37:00,29.9,29.1,29.81,NNE,29,5.0,7.0,97,0.00,,,0.00,VWS V14.00,2013-12-20 11:37:00,
2013-12-20 06:42:00,29.8,29.0,29.81,NNE,22,3.0,8.0,97,0.00,,,0.00,VWS V14.00,2013-12-20 11:42:00,
2013-12-20 06:47:00,29.7,29.0,29.81,NE,40,4.0,9.0,97,0.00,,,0.00,VWS V14.00,2013-12-20 11:47:00,
2013-12-20 06:52:00,29.6,28.9,29.81,NE,38,3.0,9.0,97,0.00,,,0.00,VWS V14.00,2013-12-20 11:52:00,
2013-12-20 06:58:00,29.5,28.8,29.81,NE,44,5.0,9.0,97,0.00,,,0.00,VWS V14.00,2013-12-20 11:58:00,
2013-12-20 07:00:00,29.5,28.8,29.80,NNE,29,3.0,9.0,97,0.00,,OVC120,0.00,VWS V14.00,2013-12-20 12:00:00,
2013-12-20 07:03:00,29.5,28.8,29.80,NE,42,2.0,7.0,97,0.00,,,0.00,VWS V14.00,2013-12-20 12:03:00,
2013-12-20 07:08:00,29.5,28.8,29.80,NE,44,2.0,7.0,97,0.00,,,0.00,VWS V14.00,2013-12-20 12:08:00,
2013-12-20 07:13:00,29.4,28.7,29.80,NNE,32,3.0,7.0,97,0.00,,,0.00,VWS V14.00,2013-12-20 12:13:00,
2013-12-20 07:18:00,29.4,28.7,29.80,NE,55,3.0,7.0,97,0.00,,,0.00,VWS V14.00,2013-12-20 12:18:00,
2013-12-20 07:23:00,29.4,28.7,29.80,ENE,61,4.0,7.0,97,0.00,,,0.00,VWS V14.00,2013-12-20 12:23:00,
2013-12-20 07:28:00,29.4,28.7,29.81,NNE,33,4.0,7.0,97,0.00,,,0.00,VWS V14.00,2013-12-20 12:28:00,
2013-12-20 07:30:00,29.4,28.7,29.81,ENE,71,4.0,7.0,97,0.00,,OVC120,0.00,VWS V14.00,2013-12-20 12:30:00,
2013-12-20 07:33:00,29.4,28.7,29.81,NE,55,4.0,5.0,97,0.00,,,0.00,VWS V14.00,2013-12-20 12:33:00,
2013-12-20 07:38:00,29.4,28.7,29.81,ENE,60,4.0,10.0,97,0.00,,,0.00,VWS V14.00,2013-12-20 12:38:00,
2013-12-20 07:43:00,29.4,28.7,29.80,NE,51,3.0,10.0,97,0.00,,,0.00,VWS V14.00,2013-12-20 12:43:00,
2013-12-20 07:48:00,29.2,28.5,29.81,NNE,16,6.0,10.0,97,0.00,,,0.00,VWS V14.00,2013-12-20 12:48:00,
2013-12-20 07:53:00,29.1,28.4,29.82,NE,42,4.0,10.0,97,0.00,,,0.00,VWS V14.00,2013-12-20 12:53:00,
2013-12-20 07:58:00,29.1,28.4,29.82,NNE,28,6.0,10.0,97,0.00,,,0.00,VWS V14.00,2013-12-20 12:58:00,
2013-12-20 08:00:00,29.0,28.3,29.82,NE,49,8.0,10.0,97,0.00,,OVC120,0.00,VWS V14.00,2013-12-20 13:00:00,
2013-12-20 08:04:00,28.9,28.2,29.82,NE,48,4.0,9.0,97,0.00,,,0.00,VWS V14.00,2013-12-20 13:04:00,
2013-12-20 08:09:00,28.8,28.1,29.82,ENE,57,4.0,9.0,97,0.00,,,0.00,VWS V14.00,2013-12-20 13:09:00,
2013-12-20 08:14:00,28.7,28.0,29.82,NE,40,4.0,9.0,97,0.00,,,0.00,VWS V14.00,2013-12-20 13:14:00,
2013-12-20 08:19:00,28.7,28.0,29.82,ENE,57,3.0,9.0,97,0.00,,,0.00,VWS V14.00,2013-12-20 13:19:00,
2013-12-20 08:24:00,28.6,27.9,29.82,NNE,26,4.0,9.0,97,0.00,,,0.00,VWS V14.00,2013-12-20 13:24:00,
2013-12-20 08:29:00,28.5,27.5,29.82,NE,55,6.0,9.0,96,0.00,,,0.00,VWS V14.00,2013-12-20 13:29:00,
2013-12-20 08:30:00,28.5,27.5,29.82,NNE,32,4.0,9.0,96,0.00,,OVC120,0.00,VWS V14.00,2013-12-20 13:30:00,
2013-12-20 08:34:00,28.5,27.5,29.82,NE,37,7.0,10.0,96,0.00,,,0.00,VWS V14.00,2013-12-20 13:34:00,
2013-12-20 08:39:00,28.5,27.5,29.82,NE,39,0.0,10.0,96,0.00,,,0.00,VWS V14.00,2013-12-20 13:39:00,
2013-12-20 08:44:00,28.5,27.5,29.81,NE,45,5.0,10.0,96,0.00,,,0.00,VWS V14.00,2013-12-20 13:44:00,
2013-12-20 08:49:00,28.4,27.4,29.81,NE,44,2.0,10.0,96,0.00,,,0.00,VWS V14.00,2013-12-20 13:49:00,
2013-12-20 08:54:00,28.5,27.5,29.81,NE,36,3.0,10.0,96,0.00,,,0.00,VWS V14.00,2013-12-20 13:54:00,
2013-12-20 08:59:00,28.5,27.5,29.81,ENE,77,2.0,10.0,96,0.00,,,0.00,VWS V14.00,2013-12-20 13:59:00,
2013-12-20 09:00:00,28.5,27.5,29.81,ENE,77,1.0,10.0,96,0.00,,OVC120,0.00,VWS V14.00,2013-12-20 14:00:00,
2013-12-20 09:04:00,28.5,27.5,29.81,ENE,67,1.0,4.0,96,0.00,,OVC005,0.00,VWS V14.00,2013-12-20 14:04:00,
2013-12-20 09:10:00,28.6,27.9,29.82,NE,53,0.0,8.0,97,0.00,,OVC005,0.00,VWS V14.00,2013-12-20 14:10:00,
2013-12-20 09:15:00,28.7,28.0,29.82,ENE,71,3.0,8.0,97,0.00,,OVC005,0.00,VWS V14.00,2013-12-20 14:15:00,
2013-12-20 09:20:00,28.7,28.0,29.82,NE,53,2.0,8.0,97,0.00,,OVC005,0.00,VWS V14.00,2013-12-20 14:20:00,
2013-12-20 09:25:00,28.8,28.1,29.82,NNE,24,0.0,8.0,97,0.00,,OVC005,0.00,VWS V14.00,2013-12-20 14:25:00,
2013-12-20 09:30:00,28.9,27.9,29.82,NE,53,2.0,2.0,96,0.00,,OVC005,0.00,VWS V14.00,2013-12-20 14:30:00,
2013-12-20 09:35:00,29.0,28.0,29.82,NE,38,2.0,5.0,96,0.00,,OVC005,0.00,VWS V14.00,2013-12-20 14:35:00,
2013-12-20 09:40:00,29.0,28.0,29.82,ENE,63,0.0,5.0,96,0.00,,OVC005,0.00,VWS V14.00,2013-12-20 14:40:00,
2013-12-20 09:45:00,29.1,28.1,29.82,ENE,63,2.0,5.0,96,0.00,,OVC005,0.00,VWS V14.00,2013-12-20 14:45:00,
2013-12-20 09:50:00,29.2,28.2,29.82,NNE,27,1.0,6.0,96,0.00,,OVC005,0.00,VWS V14.00,2013-12-20 14:50:00,
2013-12-20 09:55:00,29.2,28.2,29.82,NE,45,1.0,6.0,96,0.00,,OVC005,0.00,VWS V14.00,2013-12-20 14:55:00,
2013-12-20 10:00:00,29.3,28.6,29.82,NE,47,4.0,5.0,97,0.00,,OVC007,0.00,VWS V14.00,2013-12-20 15:00:00,
2013-12-20 10:05:00,29.3,28.6,29.83,East,86,3.0,5.0,97,0.00,,OVC007,0.00,VWS V14.00,2013-12-20 15:05:00,
2013-12-20 10:10:00,29.3,28.6,29.83,ENE,72,0.0,5.0,97,0.00,,OVC007,0.00,VWS V14.00,2013-12-20 15:10:00,
2013-12-20 10:15:00,29.4,28.7,29.83,ENE,67,3.0,5.0,97,0.00,,OVC007,0.00,VWS V14.00,2013-12-20 15:15:00,
2013-12-20 10:21:00,29.6,28.9,29.84,ENE,59,4.0,5.0,97,0.00,,OVC007,0.00,VWS V14.00,2013-12-20 15:21:00,
2013-12-20 10:26:00,29.7,29.0,29.83,NE,35,4.0,5.0,97,0.00,,OVC007,0.00,VWS V14.00,2013-12-20 15:26:00,
2013-12-20 10:30:00,29.9,29.1,29.84,NNE,32,0.0,5.0,97,0.00,,OVC120,0.00,VWS V14.00,2013-12-20 15:30:00,
2013-12-20 10:31:00,29.9,29.1,29.84,NNE,32,2.0,3.0,97,0.00,,OVC007,0.00,VWS V14.00,2013-12-20 15:31:00,
2013-12-20 10:36:00,30.0,29.2,29.84,NE,49,2.0,5.0,97,0.00,,OVC007,0.00,VWS V14.00,2013-12-20 15:36:00,
2013-12-20 10:41:00,30.1,29.4,29.84,NE,52,3.0,5.0,97,0.00,,OVC007,0.00,VWS V14.00,2013-12-20 15:41:00,
2013-12-20 10:46:00,30.1,29.4,29.83,ENE,64,5.0,6.0,97,0.00,,OVC007,0.00,VWS V14.00,2013-12-20 15:46:00,
2013-12-20 10:51:00,30.1,29.4,29.83,ENE,61,3.0,6.0,97,0.00,,OVC007,0.00,VWS V14.00,2013-12-20 15:51:00,
2013-12-20 10:56:00,30.2,29.5,29.84,NNE,29,5.0,6.0,97,0.00,,OVC007,0.00,VWS V14.00,2013-12-20 15:56:00,
2013-12-20 11:00:00,30.2,29.5,29.84,NE,48,1.0,6.0,97,0.00,,OVC120,0.00,VWS V14.00,2013-12-20 16:00:00,
2013-12-20 11:01:00,30.2,29.5,29.84,NE,47,2.0,3.0,97,0.00,,OVC007,0.00,VWS V14.00,2013-12-20 16:01:00,
2013-12-20 11:06:00,30.3,29.5,29.84,NE,52,2.0,5.0,97,0.00,,OVC007,0.00,VWS V14.00,2013-12-20 16:06:00,
2013-12-20 11:11:00,30.3,29.5,29.85,NE,49,2.0,6.0,97,0.00,,OVC007,0.00,VWS V14.00,2013-12-20 16:11:00,
2013-12-20 11:16:00,30.3,29.5,29.84,NE,55,1.0,7.0,97,0.00,,OVC007,0.00,VWS V14.00,2013-12-20 16:16:00,
2013-12-20 11:21:00,30.3,29.5,29.84,ENE,72,2.0,7.0,97,0.00,,OVC007,0.00,VWS V14.00,2013-12-20 16:21:00,
2013-12-20 11:27:00,30.3,29.5,29.83,ENE,76,2.0,7.0,97,0.00,,OVC007,0.00,VWS V14.00,2013-12-20 16:27:00,
2013-12-20 11:30:00,30.3,29.5,29.82,ENE,62,1.0,7.0,97,0.00,,OVC120,0.00,VWS V14.00,2013-12-20 16:30:00,
2013-12-20 11:32:00,30.3,29.5,29.82,East,96,2.0,6.0,97,0.00,,OVC007,0.00,VWS V14.00,2013-12-20 16:32:00,
2013-12-20 11:37:00,30.2,29.5,29.81,ENE,59,2.0,8.0,97,0.00,,OVC007,0.00,VWS V14.00,2013-12-20 16:37:00,
2013-12-20 11:42:00,30.3,29.5,29.81,ENE,65,2.0,8.0,97,0.00,,OVC007,0.00,VWS V14.00,2013-12-20 16:42:00,
2013-12-20 11:47:00,30.3,29.5,29.81,NE,39,6.0,8.0,97,0.00,,OVC007,0.00,VWS V14.00,2013-12-20 16:47:00,
2013-12-20 11:52:00,30.2,29.5,29.81,ENE,64,1.0,8.0,97,0.00,,OVC007,0.00,VWS V14.00,2013-12-20 16:52:00,
2013-12-20 11:57:00,30.3,29.5,29.81,NE,42,0.0,8.0,97,0.00,,OVC007,0.00,VWS V14.00,2013-12-20 16:57:00,
2013-12-20 12:00:00,30.3,29.5,29.80,East,84,2.0,8.0,97,0.00,,OVC120,0.00,VWS V14.00,2013-12-20 17:00:00,
2013-12-20 12:02:00,30.3,29.5,29.80,ENE,78,1.0,4.0,97,0.00,,OVC007,0.00,VWS V14.00,2013-12-20 17:02:00,
2013-12-20 12:07:00,30.3,29.5,29.80,ENE,62,3.0,7.0,97,0.00,,OVC007,0.00,VWS V14.00,2013-12-20 17:07:00,
2013-12-20 12:12:00,30.4,29.6,29.81,NE,46,2.0,7.0,97,0.00,,OVC007,0.00,VWS V14.00,2013-12-20 17:12:00,
2013-12-20 12:17:00,30.5,29.8,29.81,ENE,74,0.0,7.0,97,0.00,,OVC007,0.00,VWS V14.00,2013-12-20 17:17:00,
2013-12-20 12:23:00,30.6,29.9,29.81,NE,54,0.0,7.0,97,0.00,,OVC007,0.00,VWS V14.00,2013-12-20 17:23:00,
2013-12-20 12:28:00,30.8,30.0,29.80,NE,42,4.0,7.0,97,0.00,,OVC007,0.00,VWS V14.00,2013-12-20 17:28:00,
2013-12-20 12:30:00,30.8,30.0,29.80,NE,43,3.0,7.0,97,0.00,,OVC120,0.00,VWS V14.00,2013-12-20 17:30:00,
2013-12-20 12:33:00,30.8,30.0,29.80,NE,46,2.0,6.0,97,0.00,,OVC007,0.00,VWS V14.00,2013-12-20 17:33:00,
2013-12-20 12:38:00,30.9,30.1,29.79,ENE,76,0.0,6.0,97,0.00,,OVC007,0.00,VWS V14.00,2013-12-20 17:38:00,
2013-12-20 12:43:00,31.0,30.2,29.79,East,81,2.0,6.0,97,0.00,,OVC007,0.00,VWS V14.00,2013-12-20 17:43:00,
2013-12-20 12:48:00,31.0,30.2,29.79,ENE,71,3.0,7.0,97,0.00,,OVC007,0.00,VWS V14.00,2013-12-20 17:48:00,
2013-12-20 12:53:00,31.0,30.2,29.78,NE,36,0.0,7.0,97,0.00,,OVC007,0.00,VWS V14.00,2013-12-20 17:53:00,
2013-12-20 12:58:00,31.1,30.4,29.78,NE,34,3.0,9.0,97,0.00,,OVC007,0.00,VWS V14.00,2013-12-20 17:58:00,
2013-12-20 13:00:00,31.1,30.4,29.78,NNE,31,3.0,9.0,97,0.00,,OVC120,0.00,VWS V14.00,2013-12-20 18:00:00,
2013-12-20 13:03:00,31.2,30.5,29.78,NE,46,5.0,5.0,97,0.00,,OVC007,0.00,VWS V14.00,2013-12-20 18:03:00,
2013-12-20 13:08:00,31.2,30.5,29.78,NE,54,2.0,7.0,97,0.00,,OVC007,0.00,VWS V14.00,2013-12-20 18:08:00,
2013-12-20 13:13:00,31.2,30.5,29.78,NE,41,4.0,9.0,97,0.00,,OVC007,0.00,VWS V14.00,2013-12-20 18:13:00,
2013-12-20 13:18:00,31.2,30.5,29.78,NNE,18,4.0,9.0,97,0.00,,OVC007,0.00,VWS V14.00,2013-12-20 18:18:00,
2013-12-20 13:23:00,31.2,30.5,29.77,NE,44,3.0,9.0,97,0.00,,OVC007,0.00,VWS V14.00,2013-12-20 18:23:00,
2013-12-20 13:29:00,31.2,30.5,29.78,NNE,28,2.0,9.0,97,0.00,,OVC007,0.00,VWS V14.00,2013-12-20 18:29:00,
2013-12-20 13:30:00,31.2,30.5,29.78,NE,44,3.0,9.0,97,0.00,,OVC120,0.00,VWS V14.00,2013-12-20 18:30:00,
2013-12-20 13:34:00,31.2,30.5,29.77,NE,37,2.0,5.0,97,0.00,,,0.00,VWS V14.00,2013-12-20 18:34:00,
2013-12-20 13:39:00,31.1,30.4,29.76,NE,43,2.0,6.0,97,0.00,,,0.00,VWS V14.00,2013-12-20 18:39:00,
2013-12-20 13:44:00,31.1,30.4,29.77,NE,41,3.0,6.0,97,0.00,,,0.00,VWS V14.00,2013-12-20 18:44:00,
2013-12-20 13:49:00,31.0,30.2,29.76,East,82,2.0,7.0,97,0.00,,,0.00,VWS V14.00,2013-12-20 18:49:00,
2013-12-20 13:54:00,31.1,30.4,29.77,NNE,26,3.0,7.0,97,0.00,,,0.00,VWS V14.00,2013-12-20 18:54:00,
2013-12-20 13:59:00,31.1,30.4,29.76,NE,52,2.0,7.0,97,0.00,,,0.00,VWS V14.00,2013-12-20 18:59:00,
2013-12-20 14:00:00,31.1,30.4,29.76,NE,52,1.0,7.0,97,0.00,,OVC120,0.00,VWS V14.00,2013-12-20 19:00:00,
2013-12-20 14:04:00,31.2,30.5,29.76,NE,52,3.0,4.0,97,0.00,,,0.00,VWS V14.00,2013-12-20 19:04:00,
2013-12-20 14:09:00,31.3,30.5,29.77,NE,53,1.0,4.0,97,0.00,,,0.00,VWS V14.00,2013-12-20 19:09:00,
2013-12-20 14:14:00,31.4,30.6,29.77,NE,37,4.0,5.0,97,0.00,,,0.00,VWS V14.00,2013-12-20 19:14:00,
2013-12-20 14:19:00,31.4,30.6,29.78,ENE,67,0.0,5.0,97,0.00,,,0.00,VWS V14.00,2013-12-20 19:19:00,
2013-12-20 14:24:00,31.5,30.8,29.77,NNE,26,0.0,5.0,97,0.00,,,0.00,VWS V14.00,2013-12-20 19:24:00,
2013-12-20 14:29:00,31.4,30.6,29.77,ENE,63,5.0,6.0,97,0.00,,,0.00,VWS V14.00,2013-12-20 19:29:00,
2013-12-20 14:30:00,31.4,30.6,29.77,ENE,63,4.0,6.0,97,0.00,,OVC120,0.00,VWS V14.00,2013-12-20 19:30:00,
2013-12-20 14:33:00,31.4,30.6,29.77,NE,46,3.0,8.0,97,0.00,,,0.00,VWS V14.00,2013-12-20 19:33:00,
2013-12-20 14:38:00,31.4,30.6,29.77,NNE,14,7.0,8.0,97,0.00,,,0.00,VWS V14.00,2013-12-20 19:38:00,
2013-12-20 14:43:00,31.3,30.5,29.78,NE,44,1.0,8.0,97,0.00,,,0.00,VWS V14.00,2013-12-20 19:43:00,
2013-12-20 14:48:00,31.2,30.5,29.77,NE,36,3.0,8.0,97,0.00,,,0.00,VWS V14.00,2013-12-20 19:48:00,
2013-12-20 14:53:00,31.3,30.5,29.77,ENE,65,4.0,8.0,97,0.00,,,0.00,VWS V14.00,2013-12-20 19:53:00,
2013-12-20 14:58:00,31.3,30.5,29.76,NE,34,2.0,8.0,97,0.00,,,0.00,VWS V14.00,2013-12-20 19:58:00,
2013-12-20 15:00:00,31.3,30.5,29.76,ENE,57,2.0,8.0,97,0.00,,OVC120,0.00,VWS V14.00,2013-12-20 20:00:00,
2013-12-20 15:04:00,31.2,30.5,29.76,NE,48,1.0,5.0,97,0.00,,FZRA,0.00,VWS V14.00,2013-12-20 20:04:00,
2013-12-20 15:09:00,31.2,30.5,29.76,NE,36,2.0,9.0,97,0.00,,FZRA,0.00,VWS V14.00,2013-12-20 20:09:00,
2013-12-20 15:14:00,31.2,30.5,29.76,East,83,5.0,9.0,97,0.00,,FZRA,0.00,VWS V14.00,2013-12-20 20:14:00,
2013-12-20 15:19:00,31.1,30.4,29.76,NE,34,4.0,9.0,97,0.00,,FZRA,0.00,VWS V14.00,2013-12-20 20:19:00,
2013-12-20 15:24:00,31.1,30.4,29.76,ENE,68,3.0,9.0,97,0.00,,FZRA,0.00,VWS V14.00,2013-12-20 20:24:00,
2013-12-20 15:29:00,31.1,30.4,29.76,NE,39,1.0,9.0,97,0.00,,FZRA,0.00,VWS V14.00,2013-12-20 20:29:00,
2013-12-20 15:30:00,31.1,30.4,29.76,NE,41,2.0,9.0,97,0.00,,OVC120,0.00,VWS V14.00,2013-12-20 20:30:00,
2013-12-20 15:34:00,31.1,30.4,29.75,NE,42,0.0,7.0,97,0.00,,FZRA,0.00,VWS V14.00,2013-12-20 20:34:00,
2013-12-20 15:39:00,31.1,30.4,29.75,NE,38,2.0,7.0,97,0.00,,FZRA,0.00,VWS V14.00,2013-12-20 20:39:00,
2013-12-20 15:44:00,31.1,30.4,29.75,NNE,24,7.0,8.0,97,0.00,,FZRA,0.00,VWS V14.00,2013-12-20 20:44:00,
2013-12-20 15:49:00,31.1,30.4,29.75,ENE,68,0.0,8.0,97,0.00,,FZRA,0.00,VWS V14.00,2013-12-20 20:49:00,
2013-12-20 15:54:00,31.1,30.4,29.75,NNE,32,1.0,8.0,97,0.00,,FZRA,0.00,VWS V14.00,2013-12-20 20:54:00,
2013-12-20 15:59:00,31.1,30.4,29.77,NE,51,2.0,8.0,97,0.00,,FZRA,0.00,VWS V14.00,2013-12-20 20:59:00,
2013-12-20 16:00:00,31.1,30.4,29.77,NE,51,1.0,8.0,97,0.00,,OVC120,0.00,VWS V14.00,2013-12-20 21:00:00,
2013-12-20 16:05:00,31.2,30.5,29.76,NE,54,2.0,3.0,97,0.00,,FZRA,0.00,VWS V14.00,2013-12-20 21:05:00,
2013-12-20 16:10:00,31.4,30.6,29.76,ENE,63,2.0,7.0,97,0.00,,FZRA,0.00,VWS V14.00,2013-12-20 21:10:00,
2013-12-20 16:15:00,31.5,30.8,29.76,ENE,59,2.0,7.0,97,0.00,,FZRA,0.00,VWS V14.00,2013-12-20 21:15:00,
2013-12-20 16:20:00,31.5,30.8,29.77,NE,40,2.0,7.0,97,0.00,,FZRA,0.00,VWS V14.00,2013-12-20 21:20:00,
2013-12-20 16:25:00,31.5,30.8,29.76,NE,40,2.0,7.0,97,0.00,,FZRA,0.00,VWS V14.00,2013-12-20 21:25:00,
2013-12-20 16:30:00,31.5,30.8,29.75,NNE,29,3.0,3.0,97,0.00,,FZRA,0.00,VWS V14.00,2013-12-20 21:30:00,
2013-12-20 16:35:00,31.4,30.6,29.76,ENE,69,3.0,7.0,97,0.00,,FZRA,0.00,VWS V14.00,2013-12-20 21:35:00,
2013-12-20 16:40:00,31.4,30.6,29.77,ENE,61,0.0,7.0,97,0.00,,FZRA,0.00,VWS V14.00,2013-12-20 21:40:00,
2013-12-20 16:45:00,31.4,30.6,29.77,ENE,63,0.0,7.0,97,0.00,,FZRA,0.00,VWS V14.00,2013-12-20 21:45:00,
2013-12-20 16:50:00,31.4,30.6,29.77,NE,43,0.0,7.0,97,0.00,,FZRA,0.00,VWS V14.00,2013-12-20 21:50:00,
2013-12-20 16:55:00,31.4,30.6,29.76,NE,36,2.0,7.0,97,0.00,,FZRA,0.00,VWS V14.00,2013-12-20 21:55:00,
2013-12-20 17:00:00,31.4,30.6,29.76,NNE,25,3.0,4.0,97,0.00,,,0.00,VWS V14.00,2013-12-20 22:00:00,
2013-12-20 17:05:00,31.4,30.6,29.75,NE,54,0.0,8.0,97,0.00,,,0.00,VWS V14.00,2013-12-20 22:05:00,
2013-12-20 17:11:00,31.4,30.6,29.75,East,83,2.0,8.0,97,0.00,,,0.00,VWS V14.00,2013-12-20 22:11:00,
2013-12-20 17:16:00,31.4,30.6,29.75,NE,38,2.0,8.0,97,0.00,,,0.00,VWS V14.00,2013-12-20 22:16:00,
2013-12-20 17:21:00,31.4,30.6,29.75,North,11,4.0,8.0,97,0.00,,,0.00,VWS V14.00,2013-12-20 22:21:00,
2013-12-20 17:26:00,31.5,30.8,29.76,NE,52,0.0,8.0,97,0.00,,,0.00,VWS V14.00,2013-12-20 22:26:00,
2013-12-20 17:30:00,31.5,30.8,29.77,NE,47,0.0,8.0,97,0.00,,OVC120,0.00,VWS V14.00,2013-12-20 22:30:00,
2013-12-20 17:31:00,31.6,30.9,29.77,NE,47,0.0,2.0,97,0.00,,,0.00,VWS V14.00,2013-12-20 22:31:00,
2013-12-20 17:36:00,31.7,31.0,29.77,NE,42,2.0,4.0,97,0.00,,,0.00,VWS V14.00,2013-12-20 22:36:00,
2013-12-20 17:41:00,31.8,31.0,29.77,NE,40,1.0,4.0,97,0.00,,,0.00,VWS V14.00,2013-12-20 22:41:00,
2013-12-20 17:46:00,31.9,31.1,29.77,NE,34,3.0,5.0,97,0.00,,,0.00,VWS V14.00,2013-12-20 22:46:00,
2013-12-20 17:51:00,32.0,31.2,29.77,ENE,76,0.0,5.0,97,0.00,,,0.00,VWS V14.00,2013-12-20 22:51:00,
2013-12-20 17:56:00,32.0,31.2,29.77,ENE,59,0.0,5.0,97,0.00,,,0.00,VWS V14.00,2013-12-20 22:56:00,
2013-12-20 18:00:00,32.1,31.4,29.77,ENE,74,0.0,5.0,97,0.00,,OVC120,0.00,VWS V14.00,2013-12-20 23:00:00,
2013-12-20 18:01:00,32.1,31.4,29.77,ENE,74,0.0,0.0,97,0.00,,-RA,0.00,VWS V14.00,2013-12-20 23:01:00,
2013-12-20 18:07:00,32.2,31.5,29.77,NE,40,0.0,0.0,97,0.00,,-RA,0.00,VWS V14.00,2013-12-20 23:07:00,
2013-12-20 18:12:00,32.2,31.5,29.77,NE,38,0.0,0.0,97,0.00,,-RA,0.00,VWS V14.00,2013-12-20 23:12:00,
2013-12-20 18:17:00,32.3,31.5,29.77,ENE,71,0.0,0.0,97,0.00,,-RA,0.00,VWS V14.00,2013-12-20 23:17:00,
2013-12-20 18:22:00,32.3,31.5,29.77,ENE,74,0.0,0.0,97,0.00,,-RA,0.00,VWS V14.00,2013-12-20 23:22:00,
2013-12-20 18:27:00,32.3,31.5,29.77,ENE,67,0.0,0.0,97,0.00,,-RA,0.00,VWS V14.00,2013-12-20 23:27:00,
2013-12-20 18:30:00,32.4,31.6,29.77,NE,48,0.0,0.0,97,0.00,,OVC120,0.00,VWS V14.00,2013-12-20 23:30:00,
2013-12-20 18:32:00,32.4,31.6,29.77,NE,55,0.0,0.0,97,0.00,,-RA,0.00,VWS V14.00,2013-12-20 23:32:00,
2013-12-20 18:37:00,32.4,31.6,29.78,NE,46,0.0,0.0,97,0.00,,-RA,0.00,VWS V14.00,2013-12-20 23:37:00,
2013-12-20 18:42:00,32.4,31.6,29.77,NE,38,0.0,0.0,97,0.00,,-RA,0.00,VWS V14.00,2013-12-20 23:42:00,
2013-12-20 18:47:00,32.5,31.7,29.78,NE,40,0.0,0.0,97,0.00,,-RA,0.00,VWS V14.00,2013-12-20 23:47:00,
2013-12-20 18:52:00,32.5,31.7,29.77,NE,52,0.0,0.0,97,0.00,,-RA,0.00,VWS V14.00,2013-12-20 23:52:00,
2013-12-20 18:57:00,32.5,31.7,29.77,NNE,30,0.0,0.0,97,0.00,,-RA,0.00,VWS V14.00,2013-12-20 23:57:00,
2013-12-20 19:00:00,32.4,31.6,29.77,NE,53,0.0,0.0,97,0.00,,OVC120,0.00,VWS V14.00,2013-12-21 00:00:00,
2013-12-20 19:02:00,32.5,31.7,29.78,NE,53,0.0,0.0,97,0.00,,RA,0.00,VWS V14.00,2013-12-21 00:02:00,
2013-12-20 19:08:00,32.4,31.6,29.77,NE,53,0.0,0.0,97,0.00,,RA,0.00,VWS V14.00,2013-12-21 00:08:00,
2013-12-20 19:13:00,32.4,31.6,29.77,NE,53,0.0,0.0,97,0.00,,RA,0.00,VWS V14.00,2013-12-21 00:13:00,
2013-12-20 19:18:00,32.4,31.6,29.76,NE,53,0.0,0.0,97,0.00,,RA,0.00,VWS V14.00,2013-12-21 00:18:00,
2013-12-20 19:23:00,32.4,31.6,29.75,NE,53,0.0,0.0,97,0.00,,RA,0.00,VWS V14.00,2013-12-21 00:23:00,
2013-12-20 19:28:00,32.4,31.6,29.77,NE,53,0.0,0.0,97,0.00,,RA,0.00,VWS V14.00,2013-12-21 00:28:00,
2013-12-20 19:30:00,32.4,31.6,29.77,NE,53,0.0,0.0,97,0.00,,OVC120,0.00,VWS V14.00,2013-12-21 00:30:00,
2013-12-20 19:33:00,32.4,31.6,29.76,NE,53,0.0,0.0,97,0.00,,RA,0.00,VWS V14.00,2013-12-21 00:33:00,
2013-12-20 19:38:00,32.3,31.5,29.76,NE,53,0.0,0.0,97,0.00,,RA,0.00,VWS V14.00,2013-12-21 00:38:00,
2013-12-20 19:43:00,32.3,31.5,29.76,NE,53,0.0,0.0,97,0.00,,RA,0.00,VWS V14.00,2013-12-21 00:43:00,
2013-12-20 19:48:00,32.3,31.5,29.77,NE,53,0.0,0.0,97,0.00,,RA,0.00,VWS V14.00,2013-12-21 00:48:00,
2013-12-20 19:53:00,32.3,31.5,29.77,NE,53,0.0,0.0,97,0.00,,RA,0.00,VWS V14.00,2013-12-21 00:53:00,
2013-12-20 19:58:00,32.3,31.5,29.76,NE,53,0.0,0.0,97,0.00,,RA,0.00,VWS V14.00,2013-12-21 00:58:00,
2013-12-20 20:00:00,32.3,31.5,29.76,NE,53,0.0,0.0,97,0.00,,OVC120,0.00,VWS V14.00,2013-12-21 01:00:00,
2013-12-20 20:03:00,32.3,31.5,29.76,NE,53,0.0,0.0,97,0.00,,-RA,0.00,VWS V14.00,2013-12-21 01:03:00,
2013-12-20 20:08:00,32.3,31.5,29.76,NE,53,0.0,0.0,97,0.00,,-RA,0.00,VWS V14.00,2013-12-21 01:08:00,
2013-12-20 20:14:00,32.3,31.5,29.76,NE,53,0.0,0.0,97,0.00,,-RA,0.00,VWS V14.00,2013-12-21 01:14:00,
2013-12-20 20:19:00,32.3,31.5,29.76,NE,53,0.0,0.0,97,0.00,,-RA,0.00,VWS V14.00,2013-12-21 01:19:00,
2013-12-20 20:24:00,32.2,31.5,29.76,NE,53,0.0,0.0,97,0.00,,-RA,0.00,VWS V14.00,2013-12-21 01:24:00,
2013-12-20 20:29:00,32.3,31.5,29.75,NE,53,0.0,0.0,97,0.00,,-RA,0.00,VWS V14.00,2013-12-21 01:29:00,
2013-12-20 20:30:00,32.2,31.5,29.75,NE,53,0.0,0.0,97,0.00,,OVC120,0.00,VWS V14.00,2013-12-21 01:30:00,
2013-12-20 20:34:00,32.3,31.5,29.76,NE,53,0.0,0.0,97,0.00,,-RA,0.00,VWS V14.00,2013-12-21 01:34:00,
2013-12-20 20:39:00,32.3,31.5,29.76,NE,53,0.0,0.0,97,0.00,,-RA,0.00,VWS V14.00,2013-12-21 01:39:00,
2013-12-20 20:44:00,32.3,31.5,29.77,NE,53,0.0,0.0,97,0.00,,-RA,0.00,VWS V14.00,2013-12-21 01:44:00,
2013-12-20 20:49:00,32.2,31.5,29.77,NE,53,0.0,0.0,97,0.00,,-RA,0.00,VWS V14.00,2013-12-21 01:49:00,
2013-12-20 20:54:00,32.3,31.5,29.76,NE,53,0.0,0.0,97,0.00,,-RA,0.00,VWS V14.00,2013-12-21 01:54:00,
2013-12-20 20:59:00,32.2,31.5,29.75,NE,53,0.0,0.0,97,0.00,,-RA,0.00,VWS V14.00,2013-12-21 01:59:00,
2013-12-20 21:00:00,32.2,31.5,29.75,NE,53,0.0,0.0,97,0.00,,OVC120,0.00,VWS V14.00,2013-12-21 02:00:00,
2013-12-20 21:04:00,32.1,31.4,29.75,NE,53,0.0,0.0,97,0.00,,OVC007,0.00,VWS V14.00,2013-12-21 02:04:00,
2013-12-20 21:09:00,32.1,31.4,29.75,NE,53,0.0,0.0,97,0.00,,OVC007,0.00,VWS V14.00,2013-12-21 02:09:00,
2013-12-20 21:14:00,32.1,31.4,29.74,NE,53,0.0,0.0,97,0.00,,OVC007,0.00,VWS V14.00,2013-12-21 02:14:00,
2013-12-20 21:20:00,32.1,31.4,29.75,NE,53,0.0,0.0,97,0.00,,OVC007,0.00,VWS V14.00,2013-12-21 02:20:00,
2013-12-20 21:25:00,32.1,31.4,29.74,NE,53,0.0,0.0,97,0.00,,OVC007,0.00,VWS V14.00,2013-12-21 02:25:00,
2013-12-20 21:30:00,32.1,31.4,29.74,NE,53,0.0,0.0,97,0.00,,OVC007,0.00,VWS V14.00,2013-12-21 02:30:00,
2013-12-20 21:35:00,32.1,31.4,29.75,NE,53,0.0,0.0,97,0.00,,OVC007,0.00,VWS V14.00,2013-12-21 02:35:00,
2013-12-20 21:40:00,32.1,31.4,29.75,NE,53,0.0,0.0,97,0.00,,OVC007,0.00,VWS V14.00,2013-12-21 02:40:00,
2013-12-20 21:45:00,32.1,31.4,29.75,NE,53,0.0,0.0,97,0.00,,OVC007,0.00,VWS V14.00,2013-12-21 02:45:00,
2013-12-20 21:50:00,32.1,31.4,29.75,NE,53,0.0,0.0,97,0.00,,OVC007,0.00,VWS V14.00,2013-12-21 02:50:00,
2013-12-20 21:55:00,32.1,31.4,29.75,NE,53,0.0,0.0,97,0.00,,OVC007,0.00,VWS V14.00,2013-12-21 02:55:00,
2013-12-20 22:00:00,32.0,31.2,29.76,NE,53,0.0,0.0,97,0.00,,OVC007,0.00,VWS V14.00,2013-12-21 03:00:00,
2013-12-20 22:05:00,32.1,31.4,29.75,NE,53,0.0,0.0,97,0.00,,OVC007,0.00,VWS V14.00,2013-12-21 03:05:00,
2013-12-20 22:10:00,32.0,31.2,29.75,NE,53,0.0,0.0,97,0.00,,OVC007,0.00,VWS V14.00,2013-12-21 03:10:00,
2013-12-20 22:15:00,32.0,31.2,29.76,NE,53,0.0,0.0,97,0.00,,OVC007,0.00,VWS V14.00,2013-12-21 03:15:00,
2013-12-20 22:20:00,32.0,31.2,29.75,NE,53,0.0,0.0,97,0.00,,OVC007,0.00,VWS V14.00,2013-12-21 03:20:00,
2013-12-20 22:25:00,32.0,31.2,29.75,NE,53,0.0,0.0,97,0.00,,OVC007,0.00,VWS V14.00,2013-12-21 03:25:00,
2013-12-20 22:30:00,32.0,31.2,29.75,NE,53,0.0,0.0,97,0.00,,OVC007,0.00,VWS V14.00,2013-12-21 03:30:00,
2013-12-20 22:36:00,32.0,31.2,29.74,NE,53,0.0,0.0,97,0.00,,OVC007,0.00,VWS V14.00,2013-12-21 03:36:00,
2013-12-20 22:41:00,32.0,31.2,29.75,NE,53,0.0,0.0,97,0.00,,OVC007,0.00,VWS V14.00,2013-12-21 03:41:00,
2013-12-20 22:46:00,32.0,31.2,29.75,NE,53,0.0,0.0,97,0.00,,OVC007,0.00,VWS V14.00,2013-12-21 03:46:00,
2013-12-20 22:51:00,32.1,31.4,29.76,NE,53,0.0,0.0,97,0.00,,OVC007,0.00,VWS V14.00,2013-12-21 03:51:00,
2013-12-20 22:56:00,32.1,31.4,29.77,NE,53,0.0,0.0,97,0.00,,OVC007,0.00,VWS V14.00,2013-12-21 03:56:00,
2013-12-20 23:00:00,32.1,31.4,29.76,NE,53,0.0,0.0,97,0.00,,OVC120,0.00,VWS V14.00,2013-12-21 04:00:00,
2013-12-20 23:01:00,32.1,31.4,29.76,NE,53,0.0,0.0,97,0.00,,,0.00,VWS V14.00,2013-12-21 04:01:00,
2013-12-20 23:06:00,32.1,31.4,29.75,NE,53,0.0,0.0,97,0.00,,,0.00,VWS V14.00,2013-12-21 04:06:00,
2013-12-20 23:11:00,32.2,31.5,29.76,NE,53,0.0,0.0,97,0.00,,,0.00,VWS V14.00,2013-12-21 04:11:00,
2013-12-20 23:17:00,32.2,31.5,29.75,NE,53,0.0,0.0,97,0.00,,,0.00,VWS V14.00,2013-12-21 04:17:00,
2013-12-20 23:22:00,32.1,31.6,29.75,NE,53,0.0,0.0,98,0.00,,,0.00,VWS V14.00,2013-12-21 04:22:00,
2013-12-20 23:27:00,32.1,31.6,29.74,NE,53,0.0,0.0,98,0.00,,,0.00,VWS V14.00,2013-12-21 04:27:00,
2013-12-20 23:30:00,32.1,31.6,29.74,NE,53,0.0,0.0,98,0.00,,OVC120,0.00,VWS V14.00,2013-12-21 04:30:00,
2013-12-20 23:32:00,32.1,31.6,29.74,NE,53,0.0,0.0,98,0.00,,,0.00,VWS V14.00,2013-12-21 04:32:00,
2013-12-20 23:37:00,32.1,31.6,29.74,NE,53,0.0,0.0,98,0.00,,,0.00,VWS V14.00,2013-12-21 04:37:00,
2013-12-20 23:42:00,32.1,31.6,29.74,NE,53,0.0,0.0,98,0.00,,,0.00,VWS V14.00,2013-12-21 04:42:00,
2013-12-20 23:47:00,32.1,31.6,29.74,NE,53,0.0,0.0,98,0.00,,,0.00,VWS V14.00,2013-12-21 04:47:00,
2013-12-20 23:52:00,32.1,31.6,29.74,NE,53,0.0,0.0,98,0.00,,,0.00,VWS V14.00,2013-12-21 04:52:00,
2013-12-20 23:57:00,32.1,31.6,29.74,NE,53,0.0,0.0,98,0.00,,,0.00,VWS V14.00,2013-12-21 04:57:00,